Time;durP1;ratioP1;P1;durP2;ratioP2;P2;SDS_P1;SDS_P2;PMS_P1;PMS_P2;Temp;Humidity;BMP_temperature;BMP_pressure;BME280_temperature;BME280_humidity;BME280_pressure;Samples;Min_cycle;Max_cycle;Signal;HPM_P1;HPM_P2
2023/10/31 00:02:26;;;;;;;2.38;1.20;;;;;;;;;;5098631;28;20047;-67
2023/10/31 00:04:52;;;;;;;3.05;0.98;;;;;;;;;;5104182;28;20043;-66
2023/10/31 00:07:20;;;;;;;1.20;0.90;;;;;;;;;;5103176;28;20050;-66
2023/10/31 00:09:47;;;;;;;1.38;1.27;;;;;;;;;;5110188;28;20050;-66
2023/10/31 00:12:13;;;;;;;2.00;1.10;;;;;;;;;;5099984;28;20040;-67
2023/10/31 00:14:40;;;;;;;1.45;1.17;;;;;;;;;;5098896;28;20058;-67
2023/10/31 00:17:07;;;;;;;1.33;1.00;;;;;;;;;;5102753;28;20508;-66
2023/10/31 00:19:33;;;;;;;1.58;1.10;;;;;;;;;;5097709;28;20058;-67
2023/10/31 00:22:00;;;;;;;2.67;1.23;;;;;;;;;;5098781;28;20052;-67
2023/10/31 00:24:28;;;;;;;2.35;1.15;;;;;;;;;;5104536;28;20530;-66
2023/10/31 00:26:54;;;;;;;2.17;1.08;;;;;;;;;;5101529;28;20529;-65
2023/10/31 00:29:21;;;;;;;1.15;1.00;;;;;;;;;;5110552;28;20054;-66
2023/10/31 00:31:47;;;;;;;1.70;1.23;;;;;;;;;;5106044;28;20048;-66
2023/10/31 00:34:14;;;;;;;2.25;1.30;;;;;;;;;;5102790;28;20048;-64
2023/10/31 00:36:41;;;;;;;1.48;1.10;;;;;;;;;;5113546;28;20051;-66
2023/10/31 00:39:07;;;;;;;2.13;1.20;;;;;;;;;;5110326;28;20043;-66
2023/10/31 00:41:35;;;;;;;1.67;1.02;;;;;;;;;;5109782;28;20046;-66
2023/10/31 00:44:02;;;;;;;1.20;1.10;;;;;;;;;;5099201;28;20044;-66
2023/10/31 00:46:28;;;;;;;2.85;1.17;;;;;;;;;;5110973;28;20045;-66
2023/10/31 00:48:55;;;;;;;0.90;0.90;;;;;;;;;;5104452;28;20050;-66
2023/10/31 00:51:22;;;;;;;1.40;1.05;;;;;;;;;;5103759;28;20048;-65
2023/10/31 00:53:48;;;;;;;1.30;0.95;;;;;;;;;;5113092;28;20056;-66
2023/10/31 00:56:15;;;;;;;2.15;1.15;;;;;;;;;;5111812;28;20050;-66
2023/10/31 00:58:43;;;;;;;2.10;1.10;;;;;;;;;;5105794;28;20051;-66
2023/10/31 01:01:09;;;;;;;1.17;1.02;;;;;;;;;;5098133;28;20058;-65
2023/10/31 01:03:36;;;;;;;1.17;1.00;;;;;;;;;;5100553;28;20070;-66
2023/10/31 01:06:03;;;;;;;2.67;1.20;;;;;;;;;;5109567;28;20066;-66
2023/10/31 01:08:29;;;;;;;1.40;1.10;;;;;;;;;;5108543;28;20486;-66
2023/10/31 01:10:56;;;;;;;1.55;1.02;;;;;;;;;;5100965;28;20047;-66
2023/10/31 01:13:23;;;;;;;3.15;1.20;;;;;;;;;;5107984;28;20043;-65
2023/10/31 01:15:51;;;;;;;4.72;1.20;;;;;;;;;;5100395;28;20044;-66
2023/10/31 01:18:17;;;;;;;1.17;1.08;;;;;;;;;;5103117;28;20051;-66
2023/10/31 01:20:44;;;;;;;2.13;1.10;;;;;;;;;;5100967;28;20044;-65
2023/10/31 01:23:10;;;;;;;1.50;1.15;;;;;;;;;;5102047;28;20066;-65
2023/10/31 01:25:37;;;;;;;3.50;1.15;;;;;;;;;;5093592;28;20393;-66
2023/10/31 01:28:03;;;;;;;2.63;1.00;;;;;;;;;;5101470;28;20058;-66
2023/10/31 01:30:30;;;;;;;1.35;0.88;;;;;;;;;;5103672;28;20052;-65
2023/10/31 01:32:58;;;;;;;1.38;1.00;;;;;;;;;;5106818;28;20047;-66
2023/10/31 01:35:24;;;;;;;3.95;1.13;;;;;;;;;;5110404;28;20070;-66
2023/10/31 01:37:51;;;;;;;1.13;0.90;;;;;;;;;;5104483;28;20073;-66
2023/10/31 01:40:17;;;;;;;0.90;0.80;;;;;;;;;;5103860;28;20427;-66
2023/10/31 01:42:43;;;;;;;2.08;0.95;;;;;;;;;;5111204;28;20415;-66
2023/10/31 01:45:10;;;;;;;1.90;1.00;;;;;;;;;;5105638;28;20058;-66
2023/10/31 01:47:36;;;;;;;0.93;0.85;;;;;;;;;;5099852;28;20116;-66
2023/10/31 01:50:08;;;;;;;2.00;0.88;;;;;;;;;;5104373;28;20043;-66
2023/10/31 01:52:35;;;;;;;5.60;1.00;;;;;;;;;;5100267;28;20085;-65
2023/10/31 01:55:03;;;;;;;2.15;0.90;;;;;;;;;;5098710;28;20520;-65
2023/10/31 01:57:29;;;;;;;1.65;1.48;;;;;;;;;;5108439;28;20053;-66
2023/10/31 01:59:56;;;;;;;1.60;1.08;;;;;;;;;;5100810;28;20043;-66
2023/10/31 02:02:24;;;;;;;2.08;1.20;;;;;;;;;;5097466;28;20048;-65
2023/10/31 02:04:51;;;;;;;1.15;1.05;;;;;;;;;;5101124;28;20064;-66
2023/10/31 02:07:19;;;;;;;1.85;1.13;;;;;;;;;;5105756;28;20420;-65
2023/10/31 02:09:45;;;;;;;1.30;1.10;;;;;;;;;;5103667;28;20488;-65
2023/10/31 02:12:31;;;;;;;1.02;1.00;;;;;;;;;;5103935;28;20210;-66
2023/10/31 02:14:57;;;;;;;1.20;0.90;;;;;;;;;;5098684;28;20054;-66
2023/10/31 02:17:24;;;;;;;0.80;0.80;;;;;;;;;;5108697;28;20051;-66
2023/10/31 02:19:51;;;;;;;3.15;1.25;;;;;;;;;;5104381;28;20541;-66
2023/10/31 02:22:18;;;;;;;1.55;1.20;;;;;;;;;;5099922;28;20050;-66
2023/10/31 02:24:45;;;;;;;2.05;1.20;;;;;;;;;;5104538;28;20047;-65
2023/10/31 02:27:12;;;;;;;2.55;1.20;;;;;;;;;;5100131;28;20044;-65
2023/10/31 02:29:40;;;;;;;1.58;1.30;;;;;;;;;;5099582;28;20043;-66
2023/10/31 02:32:06;;;;;;;3.25;1.23;;;;;;;;;;5096471;28;20044;-66
2023/10/31 02:34:34;;;;;;;1.92;1.17;;;;;;;;;;5100260;28;20040;-65
2023/10/31 02:37:00;;;;;;;1.35;1.10;;;;;;;;;;5104104;28;20048;-66
2023/10/31 02:39:28;;;;;;;2.50;1.40;;;;;;;;;;5109256;28;20039;-65
2023/10/31 02:41:55;;;;;;;1.17;1.08;;;;;;;;;;5103984;28;20547;-66
2023/10/31 02:44:21;;;;;;;2.10;1.27;;;;;;;;;;5096449;28;20044;-66
2023/10/31 02:46:48;;;;;;;1.20;1.10;;;;;;;;;;5110385;28;20096;-66
2023/10/31 02:49:14;;;;;;;1.30;1.20;;;;;;;;;;5099486;28;20496;-64
2023/10/31 02:51:41;;;;;;;1.30;1.20;;;;;;;;;;5103587;28;20046;-65
2023/10/31 02:54:07;;;;;;;2.95;1.30;;;;;;;;;;5106678;28;20044;-65
2023/10/31 02:56:35;;;;;;;4.07;1.27;;;;;;;;;;5099307;28;20050;-66
2023/10/31 02:59:02;;;;;;;3.97;1.63;;;;;;;;;;5104423;28;20050;-66
2023/10/31 03:01:29;;;;;;;1.17;1.08;;;;;;;;;;5094217;28;20051;-66
2023/10/31 03:03:56;;;;;;;4.20;1.40;;;;;;;;;;5093064;28;20060;-65
2023/10/31 03:06:22;;;;;;;1.55;1.20;;;;;;;;;;5104497;28;20046;-65
2023/10/31 03:08:49;;;;;;;1.38;1.27;;;;;;;;;;5102315;28;20044;-66
2023/10/31 03:11:22;;;;;;;1.20;1.10;;;;;;;;;;5106815;28;20510;-66
2023/10/31 03:13:51;;;;;;;1.50;1.17;;;;;;;;;;5098649;28;20052;-66
2023/10/31 03:16:17;;;;;;;1.75;1.02;;;;;;;;;;5100761;28;20531;-66
2023/10/31 03:18:44;;;;;;;3.47;1.50;;;;;;;;;;5098442;28;20447;-65
2023/10/31 03:21:10;;;;;;;4.15;0.93;;;;;;;;;;5102727;28;20044;-66
2023/10/31 03:23:37;;;;;;;2.92;1.13;;;;;;;;;;5097327;28;20040;-66
2023/10/31 03:26:04;;;;;;;1.77;1.00;;;;;;;;;;5103996;28;20050;-66
2023/10/31 03:28:30;;;;;;;1.77;1.17;;;;;;;;;;5100376;28;20050;-66
2023/10/31 03:30:58;;;;;;;1.45;0.98;;;;;;;;;;5103412;28;20048;-66
2023/10/31 03:33:24;;;;;;;2.65;1.65;;;;;;;;;;5108490;28;20067;-66
2023/10/31 03:35:51;;;;;;;2.03;1.02;;;;;;;;;;5110840;28;20430;-66
2023/10/31 03:38:18;;;;;;;1.23;1.00;;;;;;;;;;5102635;28;20588;-66
2023/10/31 03:40:44;;;;;;;1.60;1.50;;;;;;;;;;5103541;28;20046;-66
2023/10/31 03:43:11;;;;;;;1.20;0.90;;;;;;;;;;5096149;28;20052;-65
2023/10/31 03:45:37;;;;;;;2.30;1.15;;;;;;;;;;5107125;28;20039;-66
2023/10/31 03:48:05;;;;;;;3.58;1.10;;;;;;;;;;5102823;28;20048;-66
2023/10/31 03:50:32;;;;;;;1.17;1.08;;;;;;;;;;5104452;28;20392;-66
2023/10/31 03:52:59;;;;;;;1.73;1.10;;;;;;;;;;5094614;28;20048;-65
2023/10/31 03:55:25;;;;;;;1.98;1.13;;;;;;;;;;5105063;28;20040;-66
2023/10/31 03:57:52;;;;;;;1.10;1.00;;;;;;;;;;5103957;28;20047;-66
2023/10/31 04:00:18;;;;;;;4.57;1.00;;;;;;;;;;5102150;28;20488;-66
2023/10/31 04:02:45;;;;;;;2.97;1.10;;;;;;;;;;5102097;28;20050;-66
2023/10/31 04:05:13;;;;;;;1.48;0.90;;;;;;;;;;5106771;28;20043;-66
2023/10/31 04:07:40;;;;;;;3.22;0.98;;;;;;;;;;5098354;28;20052;-66
2023/10/31 04:10:08;;;;;;;2.10;1.10;;;;;;;;;;5106457;28;20048;-66
2023/10/31 04:12:36;;;;;;;1.38;1.00;;;;;;;;;;5102810;28;20052;-66
2023/10/31 04:15:03;;;;;;;1.08;0.80;;;;;;;;;;5106303;28;20108;-66
2023/10/31 04:17:29;;;;;;;1.70;1.10;;;;;;;;;;5105296;28;20054;-66
2023/10/31 04:19:56;;;;;;;2.13;1.10;;;;;;;;;;5113348;28;20063;-66
2023/10/31 04:22:23;;;;;;;1.55;1.08;;;;;;;;;;5108533;28;20050;-66
2023/10/31 04:24:50;;;;;;;1.05;0.85;;;;;;;;;;5106616;28;20049;-65
2023/10/31 04:27:17;;;;;;;3.63;1.23;;;;;;;;;;5104796;28;20094;-66
2023/10/31 04:29:43;;;;;;;1.08;0.98;;;;;;;;;;5107067;28;20051;-66
2023/10/31 04:32:10;;;;;;;2.42;1.10;;;;;;;;;;5105847;28;20044;-65
2023/10/31 04:34:36;;;;;;;1.83;1.00;;;;;;;;;;5113030;28;20050;-66
2023/10/31 04:37:03;;;;;;;2.85;1.20;;;;;;;;;;5099558;28;20060;-66
2023/10/31 04:39:31;;;;;;;1.40;1.02;;;;;;;;;;5111811;28;20054;-65
2023/10/31 04:41:57;;;;;;;2.22;0.98;;;;;;;;;;5107817;28;20052;-66
2023/10/31 04:44:24;;;;;;;2.42;1.15;;;;;;;;;;5106877;28;20138;-65
2023/10/31 04:46:50;;;;;;;0.80;0.80;;;;;;;;;;5104421;28;20044;-66
2023/10/31 04:49:17;;;;;;;1.77;1.33;;;;;;;;;;5102818;28;20419;-66
2023/10/31 04:51:44;;;;;;;1.20;0.90;;;;;;;;;;5109497;28;20051;-65
2023/10/31 04:54:10;;;;;;;3.03;0.93;;;;;;;;;;5102306;28;20040;-65
2023/10/31 04:56:38;;;;;;;1.98;1.25;;;;;;;;;;5108091;28;20044;-67
2023/10/31 04:59:05;;;;;;;1.70;1.30;;;;;;;;;;5103663;28;20537;-66
2023/10/31 05:01:32;;;;;;;2.38;1.30;;;;;;;;;;5109065;28;20542;-66
2023/10/31 05:03:58;;;;;;;1.98;0.98;;;;;;;;;;5100231;28;20055;-65
2023/10/31 05:06:25;;;;;;;2.58;1.10;;;;;;;;;;5106340;28;20420;-65
2023/10/31 05:08:51;;;;;;;2.25;1.05;;;;;;;;;;5105224;28;20043;-66
2023/10/31 05:11:18;;;;;;;1.50;1.20;;;;;;;;;;5105934;28;20044;-66
2023/10/31 05:13:46;;;;;;;3.55;1.00;;;;;;;;;;5104831;28;20043;-66
2023/10/31 05:16:13;;;;;;;3.15;1.15;;;;;;;;;;5102350;28;20601;-65
2023/10/31 05:18:39;;;;;;;2.38;1.10;;;;;;;;;;5104962;28;20051;-66
2023/10/31 05:21:05;;;;;;;1.60;1.10;;;;;;;;;;5102596;28;20048;-65
2023/10/31 05:23:32;;;;;;;2.45;1.20;;;;;;;;;;5104147;28;20047;-66
2023/10/31 05:25:59;;;;;;;2.08;1.13;;;;;;;;;;5106929;28;20039;-65
2023/10/31 05:28:25;;;;;;;2.08;1.20;;;;;;;;;;5103119;28;20047;-66
2023/10/31 05:30:53;;;;;;;4.43;1.50;;;;;;;;;;5103976;28;20061;-66
2023/10/31 05:33:20;;;;;;;4.22;1.58;;;;;;;;;;5105114;28;20410;-66
2023/10/31 05:35:46;;;;;;;4.20;1.50;;;;;;;;;;5100953;28;20055;-65
2023/10/31 05:38:13;;;;;;;1.73;1.10;;;;;;;;;;5100185;28;20067;-66
2023/10/31 05:40:39;;;;;;;3.10;1.67;;;;;;;;;;5112399;28;20044;-65
2023/10/31 05:43:06;;;;;;;1.65;1.30;;;;;;;;;;5104028;28;20056;-66
2023/10/31 05:45:33;;;;;;;4.55;1.50;;;;;;;;;;5108257;28;20052;-66
2023/10/31 05:48:01;;;;;;;1.40;1.10;;;;;;;;;;5108424;28;20050;-65
2023/10/31 05:50:28;;;;;;;3.45;1.30;;;;;;;;;;5107148;28;20044;-65
2023/10/31 05:52:54;;;;;;;3.35;1.30;;;;;;;;;;5100529;28;20484;-66
2023/10/31 05:55:21;;;;;;;1.80;1.20;;;;;;;;;;5107159;28;20070;-66
2023/10/31 05:57:47;;;;;;;1.67;1.15;;;;;;;;;;5104032;28;20050;-66
2023/10/31 06:00:15;;;;;;;2.97;1.20;;;;;;;;;;5108144;28;20056;-65
2023/10/31 06:02:41;;;;;;;3.45;1.30;;;;;;;;;;5103065;28;20047;-66
2023/10/31 06:05:09;;;;;;;2.47;1.38;;;;;;;;;;5107278;28;20069;-65
2023/10/31 06:07:36;;;;;;;2.55;1.60;;;;;;;;;;5105380;28;20066;-66
2023/10/31 06:10:03;;;;;;;4.32;1.83;;;;;;;;;;5101581;28;20554;-67
2023/10/31 06:12:30;;;;;;;2.17;1.77;;;;;;;;;;5106018;28;20048;-66
2023/10/31 06:14:57;;;;;;;3.55;1.70;;;;;;;;;;5101517;28;20044;-66
2023/10/31 06:17:24;;;;;;;3.83;1.88;;;;;;;;;;5102329;28;20472;-66
2023/10/31 06:19:51;;;;;;;3.97;1.90;;;;;;;;;;5103108;28;20059;-66
2023/10/31 06:22:19;;;;;;;2.47;1.80;;;;;;;;;;5100811;28;20044;-66
2023/10/31 06:24:45;;;;;;;4.05;1.73;;;;;;;;;;5107989;28;20046;-66
2023/10/31 06:27:12;;;;;;;2.03;1.40;;;;;;;;;;5096745;28;20047;-66
2023/10/31 06:29:38;;;;;;;3.33;1.13;;;;;;;;;;5103786;28;20039;-67
2023/10/31 06:32:06;;;;;;;2.78;1.40;;;;;;;;;;5101011;28;20510;-66
2023/10/31 06:34:33;;;;;;;1.75;1.33;;;;;;;;;;5107747;28;20043;-67
2023/10/31 06:36:59;;;;;;;2.30;1.73;;;;;;;;;;5107795;28;20043;-66
2023/10/31 06:39:27;;;;;;;3.65;1.50;;;;;;;;;;5104110;28;20393;-66
2023/10/31 06:41:56;;;;;;;1.88;1.45;;;;;;;;;;5098570;28;20423;-67
2023/10/31 06:44:22;;;;;;;3.70;1.70;;;;;;;;;;5101532;28;20051;-65
2023/10/31 06:46:49;;;;;;;2.38;1.75;;;;;;;;;;5106755;28;20511;-66
2023/10/31 06:49:16;;;;;;;2.50;1.30;;;;;;;;;;5100775;28;20131;-65
2023/10/31 06:51:42;;;;;;;1.48;1.20;;;;;;;;;;5111312;28;20525;-66
2023/10/31 06:54:09;;;;;;;2.45;1.30;;;;;;;;;;5110502;28;20043;-66
2023/10/31 06:56:37;;;;;;;1.88;1.45;;;;;;;;;;5104572;28;20039;-66
2023/10/31 06:59:04;;;;;;;2.22;1.10;;;;;;;;;;5099878;28;20525;-66
2023/10/31 07:01:31;;;;;;;2.38;1.33;;;;;;;;;;5102030;28;20081;-66
2023/10/31 07:03:57;;;;;;;1.42;1.30;;;;;;;;;;5101347;28;20460;-66
2023/10/31 07:06:24;;;;;;;1.27;1.17;;;;;;;;;;5109522;28;20050;-67
2023/10/31 07:08:50;;;;;;;1.65;1.17;;;;;;;;;;5102700;28;20058;-66
2023/10/31 07:11:17;;;;;;;1.13;0.88;;;;;;;;;;5101055;28;20040;-65
2023/10/31 07:13:45;;;;;;;1.83;1.20;;;;;;;;;;5103417;28;20522;-66
2023/10/31 07:16:11;;;;;;;4.60;1.50;;;;;;;;;;5096250;28;20385;-66
2023/10/31 07:18:38;;;;;;;2.20;1.30;;;;;;;;;;5094733;28;20511;-66
2023/10/31 07:21:05;;;;;;;1.80;1.10;;;;;;;;;;5105385;28;20054;-66
2023/10/31 07:23:32;;;;;;;3.85;1.40;;;;;;;;;;5100851;28;20071;-66
2023/10/31 07:25:58;;;;;;;2.25;1.20;;;;;;;;;;5103897;28;20047;-67
2023/10/31 07:28:25;;;;;;;2.22;1.20;;;;;;;;;;5100711;28;20044;-67
2023/10/31 07:30:53;;;;;;;1.23;1.13;;;;;;;;;;5098195;28;20416;-66
2023/10/31 07:33:19;;;;;;;4.15;1.30;;;;;;;;;;5108069;28;20044;-65
2023/10/31 07:35:46;;;;;;;3.13;1.70;;;;;;;;;;5107789;28;20414;-67
2023/10/31 07:38:12;;;;;;;1.60;1.10;;;;;;;;;;5102631;28;20411;-67
2023/10/31 07:40:39;;;;;;;1.25;1.00;;;;;;;;;;5108544;28;20496;-66
2023/10/31 07:43:05;;;;;;;2.95;1.20;;;;;;;;;;5102165;28;20050;-69
2023/10/31 07:45:32;;;;;;;2.42;1.33;;;;;;;;;;5097215;28;20135;-71
2023/10/31 07:48:00;;;;;;;3.08;1.10;;;;;;;;;;5093556;28;20040;-70
2023/10/31 07:50:27;;;;;;;5.22;1.30;;;;;;;;;;5099285;28;20051;-70
2023/10/31 07:52:53;;;;;;;3.05;1.23;;;;;;;;;;5096111;28;20043;-67
2023/10/31 07:55:20;;;;;;;3.50;1.20;;;;;;;;;;5101811;28;20040;-67
2023/10/31 07:57:47;;;;;;;3.08;1.30;;;;;;;;;;5105235;28;20047;-65
2023/10/31 08:00:14;;;;;;;2.55;1.25;;;;;;;;;;5098356;28;20499;-68
2023/10/31 08:02:41;;;;;;;2.83;1.33;;;;;;;;;;5105127;28;20051;-67
2023/10/31 08:05:11;;;;;;;1.98;1.38;;;;;;;;;;5106118;28;20424;-67
2023/10/31 08:07:37;;;;;;;2.55;1.20;;;;;;;;;;5106196;28;20051;-67
2023/10/31 08:10:05;;;;;;;2.28;1.40;;;;;;;;;;5101486;28;20048;-66
2023/10/31 08:12:32;;;;;;;5.30;2.10;;;;;;;;;;5108912;28;20055;-67
2023/10/31 08:14:59;;;;;;;4.10;1.67;;;;;;;;;;5107376;28;20040;-67
2023/10/31 08:17:26;;;;;;;3.38;1.45;;;;;;;;;;5101137;28;20076;-67
2023/10/31 08:19:52;;;;;;;3.63;1.52;;;;;;;;;;5103487;28;20048;-68
2023/10/31 08:22:20;;;;;;;1.60;1.40;;;;;;;;;;5099874;28;20050;-67
2023/10/31 08:24:47;;;;;;;4.22;1.58;;;;;;;;;;5105788;28;20050;-67
2023/10/31 08:27:13;;;;;;;3.92;1.40;;;;;;;;;;5101308;28;20047;-67
2023/10/31 08:29:40;;;;;;;3.45;2.05;;;;;;;;;;5111742;28;20039;-67
2023/10/31 08:32:07;;;;;;;5.03;2.75;;;;;;;;;;5105710;28;20048;-67
2023/10/31 08:34:33;;;;;;;2.40;1.00;;;;;;;;;;5095758;28;20050;-68
2023/10/31 08:37:00;;;;;;;3.97;2.47;;;;;;;;;;5095874;28;20135;-68
2023/10/31 08:39:28;;;;;;;2.67;1.27;;;;;;;;;;5102779;28;20047;-67
2023/10/31 08:41:55;;;;;;;2.50;1.00;;;;;;;;;;5107372;28;20043;-68
2023/10/31 08:44:22;;;;;;;3.15;1.15;;;;;;;;;;5101268;28;20082;-70
2023/10/31 08:46:48;;;;;;;3.70;1.10;;;;;;;;;;5104656;28;20047;-70
2023/10/31 08:49:15;;;;;;;4.95;1.63;;;;;;;;;;5101511;28;20052;-70
2023/10/31 08:51:42;;;;;;;4.00;1.52;;;;;;;;;;5100545;28;20044;-70
2023/10/31 08:54:09;;;;;;;3.83;1.95;;;;;;;;;;5093966;28;20484;-69
2023/10/31 08:56:37;;;;;;;3.20;1.10;;;;;;;;;;5098172;28;20043;-70
2023/10/31 08:59:04;;;;;;;3.38;1.10;;;;;;;;;;5109817;28;20048;-69
2023/10/31 09:01:31;;;;;;;2.85;1.08;;;;;;;;;;5105058;28;20101;-69
2023/10/31 09:03:58;;;;;;;1.58;0.90;;;;;;;;;;5110733;28;20070;-70
2023/10/31 09:06:25;;;;;;;4.78;1.10;;;;;;;;;;5107222;28;20044;-68
2023/10/31 09:08:51;;;;;;;2.42;1.13;;;;;;;;;;5108942;28;20046;-69
2023/10/31 09:11:18;;;;;;;3.00;1.15;;;;;;;;;;5106649;28;20044;-68
2023/10/31 09:13:46;;;;;;;3.47;1.20;;;;;;;;;;5109269;28;20419;-69
2023/10/31 09:16:13;;;;;;;2.38;1.00;;;;;;;;;;5095176;28;20043;-67
2023/10/31 09:18:40;;;;;;;4.63;1.35;;;;;;;;;;5110262;28;20050;-67
2023/10/31 09:21:06;;;;;;;2.40;1.10;;;;;;;;;;5092250;28;20052;-67
2023/10/31 09:23:33;;;;;;;2.72;1.08;;;;;;;;;;5100408;28;20073;-67
2023/10/31 09:26:00;;;;;;;3.80;1.17;;;;;;;;;;5101346;28;20090;-67
2023/10/31 09:28:26;;;;;;;4.97;1.13;;;;;;;;;;5109090;28;20047;-67
2023/10/31 09:30:54;;;;;;;6.43;1.10;;;;;;;;;;5108303;28;20422;-67
2023/10/31 09:33:21;;;;;;;4.82;1.17;;;;;;;;;;5103225;28;20397;-67
2023/10/31 09:35:47;;;;;;;2.65;1.30;;;;;;;;;;5107096;28;20097;-67
2023/10/31 09:38:14;;;;;;;4.40;1.40;;;;;;;;;;5101058;28;20302;-68
2023/10/31 09:40:40;;;;;;;3.97;1.65;;;;;;;;;;5104376;28;20420;-68
2023/10/31 09:43:07;;;;;;;2.78;1.42;;;;;;;;;;5095268;28;20048;-68
2023/10/31 09:45:34;;;;;;;2.42;1.20;;;;;;;;;;5094237;28;20067;-68
2023/10/31 09:48:02;;;;;;;4.00;1.50;;;;;;;;;;5100798;28;20047;-68
2023/10/31 09:50:30;;;;;;;7.13;1.52;;;;;;;;;;5105160;28;20407;-68
2023/10/31 09:52:57;;;;;;;4.72;1.60;;;;;;;;;;5095170;28;20047;-68
2023/10/31 09:55:25;;;;;;;4.53;1.33;;;;;;;;;;5101015;28;20489;-67
2023/10/31 09:57:51;;;;;;;1.67;1.25;;;;;;;;;;5110208;28;20051;-67
2023/10/31 10:00:19;;;;;;;9.60;1.70;;;;;;;;;;5103725;28;20051;-67
2023/10/31 10:02:45;;;;;;;4.60;1.50;;;;;;;;;;5107142;28;20486;-67
2023/10/31 10:05:17;;;;;;;5.18;1.55;;;;;;;;;;5103773;28;20432;-67
2023/10/31 10:07:44;;;;;;;4.60;1.30;;;;;;;;;;5103850;28;20427;-68
2023/10/31 10:10:11;;;;;;;4.45;1.58;;;;;;;;;;5103810;28;20471;-68
2023/10/31 10:12:38;;;;;;;3.30;1.20;;;;;;;;;;5101676;28;20047;-68
2023/10/31 10:15:05;;;;;;;2.85;1.27;;;;;;;;;;5097375;28;20412;-68
2023/10/31 10:17:33;;;;;;;3.80;0.90;;;;;;;;;;5106163;28;20047;-68
2023/10/31 10:20:08;;;;;;;2.78;1.00;;;;;;;;;;5101814;28;20047;-67
2023/10/31 10:22:39;;;;;;;5.50;1.15;;;;;;;;;;5101851;28;20491;-68
2023/10/31 10:25:07;;;;;;;5.75;1.35;;;;;;;;;;5101219;28;20423;-67
2023/10/31 10:27:33;;;;;;;3.70;1.35;;;;;;;;;;5105144;28;20062;-67
2023/10/31 10:30:00;;;;;;;4.60;1.30;;;;;;;;;;5103002;28;20050;-68
2023/10/31 10:32:27;;;;;;;2.78;1.15;;;;;;;;;;5101903;28;20049;-68
2023/10/31 10:34:53;;;;;;;2.90;1.02;;;;;;;;;;5104964;28;20046;-67
2023/10/31 10:37:20;;;;;;;2.33;1.13;;;;;;;;;;5099424;28;20072;-67
2023/10/31 10:39:52;;;;;;;5.28;1.20;;;;;;;;;;5106927;28;20047;-67
2023/10/31 10:42:19;;;;;;;3.58;1.35;;;;;;;;;;5098768;28;20047;-67
2023/10/31 10:44:47;;;;;;;5.25;1.17;;;;;;;;;;5106198;28;20052;-68
2023/10/31 10:47:14;;;;;;;4.60;1.23;;;;;;;;;;5103055;28;20535;-68
2023/10/31 10:49:43;;;;;;;6.00;1.13;;;;;;;;;;5106080;28;20047;-68
2023/10/31 10:52:24;;;;;;;4.95;1.23;;;;;;;;;;5105498;28;20050;-67
2023/10/31 10:54:56;;;;;;;4.50;1.00;;;;;;;;;;5095900;28;20054;-67
2023/10/31 10:57:33;;;;;;;4.07;1.10;;;;;;;;;;5098166;28;20132;-68
2023/10/31 11:00:04;;;;;;;2.47;1.10;;;;;;;;;;5105568;28;20059;-67
2023/10/31 11:02:31;;;;;;;2.60;1.00;;;;;;;;;;5099994;28;20082;-68
2023/10/31 11:04:58;;;;;;;2.72;0.75;;;;;;;;;;5101279;28;20044;-70
2023/10/31 11:07:28;;;;;;;3.03;0.80;;;;;;;;;;5100264;28;20051;-70
2023/10/31 11:09:56;;;;;;;2.10;0.77;;;;;;;;;;5110174;28;20054;-69
2023/10/31 11:12:24;;;;;;;3.47;0.80;;;;;;;;;;5103096;28;20047;-70
2023/10/31 11:14:51;;;;;;;1.77;0.68;;;;;;;;;;5107208;28;20075;-69
2023/10/31 11:17:25;;;;;;;3.38;0.75;;;;;;;;;;5094251;28;20040;-70
2023/10/31 11:19:52;;;;;;;3.05;0.70;;;;;;;;;;5102830;28;20479;-69
2023/10/31 11:22:19;;;;;;;4.45;0.95;;;;;;;;;;5094565;28;20553;-68
2023/10/31 11:24:45;;;;;;;2.95;0.73;;;;;;;;;;5102033;28;20043;-72
2023/10/31 11:27:13;;;;;;;2.30;0.95;;;;;;;;;;5098595;28;20041;-69
2023/10/31 11:29:40;;;;;;;0.98;0.50;;;;;;;;;;5104421;28;20066;-71
2023/10/31 11:32:09;;;;;;;4.47;0.90;;;;;;;;;;5100144;28;20496;-69
2023/10/31 11:34:38;;;;;;;0.90;0.60;;;;;;;;;;5102804;28;20518;-69
2023/10/31 11:37:19;;;;;;;1.95;0.82;;;;;;;;;;5101643;28;20048;-68
2023/10/31 11:40:16;;;;;;;1.15;0.57;;;;;;;;;;5095145;28;20066;-68
2023/10/31 11:42:48;;;;;;;2.50;0.70;;;;;;;;;;5097729;28;20419;-69
2023/10/31 11:45:26;;;;;;;1.00;0.90;;;;;;;;;;5095540;28;20050;-68
2023/10/31 11:47:52;;;;;;;2.67;1.15;;;;;;;;;;5106575;28;20048;-69
2023/10/31 11:50:19;;;;;;;1.45;0.65;;;;;;;;;;5101118;28;20048;-69
2023/10/31 11:52:46;;;;;;;2.80;0.80;;;;;;;;;;5101926;28;20043;-69
2023/10/31 11:55:13;;;;;;;1.80;0.88;;;;;;;;;;5103448;28;20050;-69
2023/10/31 11:57:40;;;;;;;0.77;0.70;;;;;;;;;;5109618;28;20047;-68
2023/10/31 12:00:21;;;;;;;3.33;0.90;;;;;;;;;;5105549;28;20043;-68
2023/10/31 12:02:58;;;;;;;1.58;0.70;;;;;;;;;;5105772;28;20043;-69
2023/10/31 12:05:24;;;;;;;1.38;0.95;;;;;;;;;;5101053;28;20107;-69
2023/10/31 12:07:51;;;;;;;0.90;0.65;;;;;;;;;;5102920;28;20044;-69
2023/10/31 12:10:23;;;;;;;1.70;0.73;;;;;;;;;;5101947;28;20048;-69
2023/10/31 12:12:49;;;;;;;1.90;0.75;;;;;;;;;;5102399;28;20039;-69
2023/10/31 12:15:17;;;;;;;1.00;0.70;;;;;;;;;;5099040;28;20053;-68
2023/10/31 12:17:44;;;;;;;2.00;0.65;;;;;;;;;;5109411;28;20056;-68
2023/10/31 12:20:11;;;;;;;0.80;0.65;;;;;;;;;;5108885;28;20047;-68
2023/10/31 12:22:39;;;;;;;1.70;0.90;;;;;;;;;;5109098;28;20051;-69
2023/10/31 12:25:08;;;;;;;2.75;0.98;;;;;;;;;;5109144;28;20104;-69
2023/10/31 12:27:45;;;;;;;1.23;0.70;;;;;;;;;;5108817;28;20047;-69
2023/10/31 12:30:13;;;;;;;0.73;0.70;;;;;;;;;;5101808;28;20047;-69
2023/10/31 12:32:42;;;;;;;2.67;0.98;;;;;;;;;;5104224;28;20085;-69
2023/10/31 12:35:15;;;;;;;2.15;0.70;;;;;;;;;;5104743;28;20440;-68
2023/10/31 12:37:43;;;;;;;2.17;0.60;;;;;;;;;;5108289;28;20050;-69
2023/10/31 12:40:10;;;;;;;0.50;0.50;;;;;;;;;;5109102;28;20491;-69
2023/10/31 12:42:37;;;;;;;2.15;0.70;;;;;;;;;;5105034;28;20511;-69
2023/10/31 12:45:05;;;;;;;1.20;0.90;;;;;;;;;;5101322;28;20414;-68
2023/10/31 12:47:31;;;;;;;2.35;0.75;;;;;;;;;;5102232;28;20468;-69
2023/10/31 12:50:10;;;;;;;0.90;0.70;;;;;;;;;;5104159;28;20131;-69
2023/10/31 12:52:50;;;;;;;0.70;0.70;;;;;;;;;;5103986;28;20050;-69
2023/10/31 12:55:19;;;;;;;1.98;0.52;;;;;;;;;;5105507;28;20048;-68
2023/10/31 12:57:46;;;;;;;2.75;0.68;;;;;;;;;;5108497;28;20051;-69
2023/10/31 13:00:13;;;;;;;1.05;0.60;;;;;;;;;;5105322;28;20062;-69
2023/10/31 13:02:40;;;;;;;1.27;0.75;;;;;;;;;;5112433;28;20047;-69
2023/10/31 13:05:16;;;;;;;2.13;1.00;;;;;;;;;;5103678;28;20050;-68
2023/10/31 13:07:49;;;;;;;2.25;0.80;;;;;;;;;;5101729;28;20039;-68
2023/10/31 13:10:16;;;;;;;2.78;0.82;;;;;;;;;;5108559;28;20057;-69
2023/10/31 13:12:44;;;;;;;1.42;0.50;;;;;;;;;;5105196;28;20446;-69
2023/10/31 13:15:11;;;;;;;1.23;0.80;;;;;;;;;;5106476;28;20060;-68
2023/10/31 13:17:38;;;;;;;1.13;0.70;;;;;;;;;;5105493;28;20100;-69
2023/10/31 13:20:06;;;;;;;1.75;0.70;;;;;;;;;;5109252;28;20052;-69
2023/10/31 13:22:34;;;;;;;1.73;0.80;;;;;;;;;;5105495;28;20048;-69
2023/10/31 13:25:01;;;;;;;2.70;0.90;;;;;;;;;;5102619;28;20052;-69
2023/10/31 13:27:27;;;;;;;3.65;0.90;;;;;;;;;;5106474;28;20466;-69
2023/10/31 13:29:54;;;;;;;1.75;0.77;;;;;;;;;;5105379;28;20124;-69
2023/10/31 13:32:21;;;;;;;3.30;1.00;;;;;;;;;;5106967;28;20044;-69
2023/10/31 13:34:47;;;;;;;1.80;0.98;;;;;;;;;;5112494;28;20506;-69
2023/10/31 13:37:14;;;;;;;2.75;1.10;;;;;;;;;;5098120;28;20421;-69
2023/10/31 13:39:42;;;;;;;2.90;1.15;;;;;;;;;;5105070;28;20488;-69
2023/10/31 13:42:10;;;;;;;4.68;1.77;;;;;;;;;;5102181;28;20055;-68
2023/10/31 13:44:36;;;;;;;3.53;1.20;;;;;;;;;;5107765;28;20491;-69
2023/10/31 13:47:03;;;;;;;2.65;1.00;;;;;;;;;;5102535;28;20058;-69
2023/10/31 13:49:30;;;;;;;3.33;1.48;;;;;;;;;;5104315;28;20075;-69
2023/10/31 13:51:57;;;;;;;1.60;0.90;;;;;;;;;;5106255;28;20074;-70
2023/10/31 13:54:23;;;;;;;2.40;1.30;;;;;;;;;;5105614;28;20043;-69
2023/10/31 13:56:51;;;;;;;1.83;1.08;;;;;;;;;;5104433;28;20472;-69
2023/10/31 13:59:19;;;;;;;3.83;1.45;;;;;;;;;;5111647;28;20050;-68
2023/10/31 14:01:46;;;;;;;4.65;1.20;;;;;;;;;;5108042;28;20499;-69
2023/10/31 14:04:14;;;;;;;3.10;1.02;;;;;;;;;;5101015;28;20047;-69
2023/10/31 14:06:41;;;;;;;4.13;0.98;;;;;;;;;;5107582;28;20048;-69
2023/10/31 14:09:09;;;;;;;3.38;0.90;;;;;;;;;;5108063;28;20063;-69
2023/10/31 14:11:36;;;;;;;2.65;1.33;;;;;;;;;;5104999;28;20484;-69
2023/10/31 14:14:08;;;;;;;2.65;1.00;;;;;;;;;;5101752;28;20082;-69
2023/10/31 14:16:35;;;;;;;1.80;0.90;;;;;;;;;;5104234;28;20465;-69
2023/10/31 14:19:02;;;;;;;1.55;1.10;;;;;;;;;;5106320;28;20056;-69
2023/10/31 14:21:29;;;;;;;2.33;1.20;;;;;;;;;;5102909;28;20150;-69
2023/10/31 14:23:56;;;;;;;1.55;0.80;;;;;;;;;;5102646;28;20054;-69
2023/10/31 14:26:23;;;;;;;3.58;1.20;;;;;;;;;;5103536;28;20047;-70
2023/10/31 14:28:50;;;;;;;4.85;2.72;;;;;;;;;;5099630;28;20044;-69
2023/10/31 14:31:18;;;;;;;2.10;1.30;;;;;;;;;;5107317;28;20333;-69
2023/10/31 14:33:45;;;;;;;7.57;3.55;;;;;;;;;;5099556;28;20051;-69
2023/10/31 14:36:13;;;;;;;2.80;1.33;;;;;;;;;;5108402;28;20044;-69
2023/10/31 14:38:40;;;;;;;3.90;1.63;;;;;;;;;;5102984;28;20415;-69
2023/10/31 14:41:07;;;;;;;3.53;1.27;;;;;;;;;;5101705;28;20054;-69
2023/10/31 14:43:33;;;;;;;2.13;0.90;;;;;;;;;;5101905;28;20113;-69
2023/10/31 14:46:00;;;;;;;2.30;1.13;;;;;;;;;;5106179;28;20051;-70